createdAt,value
2022-12-15T00:00:21.315Z,49.63
2022-12-15T00:03:08.881Z,47.17
2022-12-15T00:05:55.100Z,47.13
2022-12-15T00:08:41.378Z,49.90
2022-12-15T00:11:27.623Z,49.40
2022-12-15T00:14:13.907Z,49.53
2022-12-15T00:17:00.160Z,52.97
2022-12-15T00:19:47.499Z,53.33
2022-12-15T00:22:33.758Z,54.77
2022-12-15T00:25:20.019Z,52.40
2022-12-15T00:28:06.157Z,65.93
2022-12-15T00:30:54.061Z,67.83
2022-12-15T00:33:43.602Z,72.20
2022-12-15T00:36:31.102Z,66.70
2022-12-15T00:39:03.739Z,62.20
2022-12-15T00:41:33.144Z,57.37
2022-12-15T00:44:02.001Z,56.57
2022-12-15T00:46:47.946Z,58.30
2022-12-15T00:49:30.636Z,70.50
2022-12-15T00:52:18.250Z,70.70
2022-12-15T00:55:04.606Z,72.20
2022-12-15T00:57:50.974Z,75.33
2022-12-15T01:00:36.958Z,72.70
2022-12-15T01:03:30.222Z,66.33
2022-12-15T01:06:16.872Z,69.70
2022-12-15T01:09:04.349Z,68.37
2022-12-15T01:11:50.565Z,64.70
2022-12-15T01:14:36.925Z,71.67
2022-12-15T01:17:23.255Z,67.37
2022-12-15T01:20:09.517Z,55.57
2022-12-15T01:22:38.861Z,62.30
2022-12-15T01:25:10.830Z,69.30
2022-12-15T01:27:39.584Z,60.53
2022-12-15T01:30:11.165Z,59.87
2022-12-15T01:32:45.714Z,55.93
2022-12-15T01:35:15.336Z,60.27
2022-12-15T01:37:44.472Z,62.47
2022-12-15T01:40:35.521Z,61.00
2022-12-15T01:43:04.348Z,71.30
2022-12-15T01:45:50.942Z,62.67
2022-12-15T01:48:25.911Z,60.20
2022-12-15T01:51:05.634Z,65.30
2022-12-15T01:53:41.046Z,63.00
2022-12-15T01:56:12.363Z,58.23
2022-12-15T01:58:45.119Z,58.50
2022-12-15T02:01:14.061Z,60.17
2022-12-15T02:03:44.466Z,58.63
2022-12-15T02:06:14.524Z,55.67
2022-12-15T02:08:46.655Z,60.17
2022-12-15T02:11:40.517Z,55.57
2022-12-15T02:14:11.704Z,56.40
2022-12-15T02:16:54.220Z,53.87
2022-12-15T02:19:44.316Z,56.63
2022-12-15T02:22:25.810Z,54.10
2022-12-15T02:25:24.201Z,54.07
2022-12-15T02:28:00.632Z,58.17
2022-12-15T02:30:42.954Z,55.63
2022-12-15T02:33:19.043Z,50.63
2022-12-15T02:35:56.824Z,55.73
2022-12-15T02:38:34.275Z,60.20
2022-12-15T02:41:04.529Z,64.03
2022-12-15T02:43:39.064Z,59.60
2022-12-15T02:46:20.753Z,52.90
2022-12-15T02:48:59.519Z,52.07
2022-12-15T02:51:44.204Z,51.40
2022-12-15T02:54:36.661Z,51.37
2022-12-15T02:57:11.505Z,51.97
2022-12-15T02:59:44.377Z,50.83
2022-12-15T03:02:15.787Z,46.90
2022-12-15T03:04:45.726Z,45.77
2022-12-15T03:07:15.780Z,49.87
2022-12-15T03:09:44.631Z,49.57
2022-12-15T03:12:13.414Z,52.60
2022-12-15T03:14:42.161Z,46.50
2022-12-15T03:17:10.953Z,47.13
2022-12-15T03:19:41.215Z,47.30
2022-12-15T03:22:09.971Z,47.23
2022-12-15T03:24:38.682Z,48.57
2022-12-15T03:27:07.433Z,47.90
2022-12-15T03:29:36.199Z,46.60
2022-12-15T03:32:05.156Z,45.53
2022-12-15T03:34:33.956Z,46.73
2022-12-15T03:37:04.138Z,48.23
2022-12-15T03:39:32.873Z,42.27
2022-12-15T03:42:01.660Z,43.70
2022-12-15T03:44:30.385Z,41.63
2022-12-15T03:47:03.265Z,43.73
2022-12-15T03:49:32.633Z,43.83
2022-12-15T03:52:01.301Z,43.73
2022-12-15T03:54:31.427Z,41.40
2022-12-15T03:57:00.416Z,42.30
2022-12-15T03:59:29.200Z,45.07
2022-12-15T04:01:58.030Z,41.77
2022-12-15T04:04:26.943Z,42.70
2022-12-15T04:06:55.700Z,38.50
2022-12-15T04:09:24.672Z,40.30
2022-12-15T04:11:54.786Z,39.50
2022-12-15T04:14:23.579Z,45.70
2022-12-15T04:16:52.405Z,40.57
2022-12-15T04:19:37.813Z,46.17
2022-12-15T04:22:06.591Z,44.13
2022-12-15T04:24:52.866Z,43.00
2022-12-15T04:27:40.261Z,42.77
2022-12-15T04:30:27.266Z,42.57
2022-12-15T04:33:13.633Z,40.90
2022-12-15T04:35:59.807Z,43.43
2022-12-15T04:38:50.657Z,39.40
2022-12-15T04:41:38.035Z,41.10
2022-12-15T04:44:25.904Z,41.77
2022-12-15T04:47:12.094Z,41.30
2022-12-15T04:49:58.218Z,40.93
2022-12-15T04:52:44.653Z,42.27
2022-12-15T04:55:30.862Z,41.73
2022-12-15T04:58:17.065Z,40.87
2022-12-15T05:01:04.511Z,39.23
2022-12-15T05:03:50.657Z,40.57
2022-12-15T05:06:36.811Z,36.60
2022-12-15T05:09:22.999Z,33.83
2022-12-15T05:12:09.185Z,31.43
2022-12-15T05:14:55.386Z,26.37
2022-12-15T05:17:43.011Z,28.30
2022-12-15T05:20:29.526Z,29.37
2022-12-15T05:23:16.609Z,30.47
2022-12-15T05:26:02.970Z,30.27
2022-12-15T05:28:49.425Z,30.10
2022-12-15T05:31:35.748Z,31.43
2022-12-15T05:34:07.219Z,30.30
2022-12-15T05:36:35.992Z,33.67
2022-12-15T05:39:05.297Z,33.73
2022-12-15T05:41:34.182Z,31.93
2022-12-15T05:44:02.973Z,33.67
2022-12-15T05:46:31.824Z,31.57
2022-12-15T05:49:00.815Z,31.90
2022-12-15T05:51:31.096Z,31.03
2022-12-15T05:53:59.978Z,31.90
2022-12-15T05:56:29.993Z,29.73
2022-12-15T05:58:58.912Z,28.60
2022-12-15T06:01:28.874Z,29.50
2022-12-15T06:03:57.687Z,28.00
2022-12-15T06:06:26.955Z,30.17
2022-12-15T06:08:57.385Z,27.23
2022-12-15T06:11:26.525Z,30.87
2022-12-15T06:13:56.426Z,31.63
2022-12-15T06:16:28.320Z,31.60
2022-12-15T06:18:59.556Z,28.87
2022-12-15T06:21:30.945Z,32.13
2022-12-15T06:24:01.202Z,31.20
2022-12-15T06:26:32.073Z,31.40
2022-12-15T06:29:03.304Z,29.93
2022-12-15T06:31:34.218Z,30.87
2022-12-15T06:34:05.952Z,27.80
2022-12-15T06:36:34.832Z,30.20
2022-12-15T06:39:08.330Z,30.90
2022-12-15T06:41:39.058Z,30.20
2022-12-15T06:44:07.983Z,30.07
2022-12-15T06:46:37.009Z,31.53
2022-12-15T06:49:06.128Z,31.77
2022-12-15T06:51:34.933Z,33.93
2022-12-15T06:54:05.390Z,30.90
2022-12-15T06:56:37.064Z,33.67
2022-12-15T06:59:07.677Z,32.73
2022-12-15T07:01:36.639Z,30.93
2022-12-15T07:04:06.089Z,33.20
2022-12-15T07:06:37.727Z,32.60
2022-12-15T07:09:10.652Z,31.83
2022-12-15T07:11:39.403Z,32.50
2022-12-15T07:14:08.311Z,31.47
2022-12-15T07:16:37.200Z,30.30
2022-12-15T07:19:06.106Z,31.20
2022-12-15T07:21:35.799Z,31.73
2022-12-15T07:24:04.871Z,31.17
2022-12-15T07:26:35.993Z,30.77
2022-12-15T07:29:04.867Z,29.17
2022-12-15T07:31:33.748Z,29.63
2022-12-15T07:34:02.521Z,31.90
2022-12-15T07:36:33.784Z,27.63
2022-12-15T07:39:04.648Z,24.97
2022-12-15T07:41:35.668Z,24.70
2022-12-15T07:44:05.656Z,24.43
2022-12-15T07:46:34.620Z,26.63
2022-12-15T07:49:05.037Z,25.33
2022-12-15T07:51:33.962Z,21.63
2022-12-15T07:54:02.840Z,21.13
2022-12-15T07:56:37.376Z,18.40
2022-12-15T07:59:10.250Z,19.87
2022-12-15T08:01:39.231Z,20.57
2022-12-15T08:04:08.410Z,20.50
2022-12-15T08:06:37.301Z,20.17
2022-12-15T08:09:05.948Z,18.80
2022-12-15T08:11:35.916Z,19.70
2022-12-15T08:14:07.965Z,20.50
2022-12-15T08:16:42.175Z,17.47
2022-12-15T08:19:13.459Z,19.43
2022-12-15T08:21:42.985Z,19.03
2022-12-15T08:24:12.409Z,19.67
2022-12-15T08:26:41.501Z,18.60
2022-12-15T08:32:05.933Z,20.20
2022-12-15T08:34:35.722Z,19.53
2022-12-15T08:37:04.821Z,21.07
2022-12-15T08:39:33.772Z,19.30
2022-12-15T08:42:02.638Z,17.70
2022-12-15T08:44:31.584Z,20.53
2022-12-15T08:47:00.584Z,22.53
2022-12-15T08:49:30.940Z,21.00
2022-12-15T08:51:59.761Z,19.97
2022-12-15T08:54:28.681Z,23.50
2022-12-15T08:56:57.618Z,23.87
2022-12-15T08:59:26.762Z,20.30
2022-12-15T09:01:58.380Z,20.17
2022-12-15T09:04:27.610Z,19.00
2022-12-15T09:06:59.819Z,18.77
2022-12-15T09:09:28.986Z,19.50
2022-12-15T09:11:57.954Z,19.33
2022-12-15T09:14:29.492Z,17.97
2022-12-15T09:16:58.783Z,17.73
2022-12-15T09:19:28.146Z,17.97
2022-12-15T09:21:57.059Z,20.40
2022-12-15T09:24:34.819Z,17.37
2022-12-15T09:27:05.578Z,20.30
2022-12-15T09:29:36.181Z,19.00
2022-12-15T09:32:12.135Z,18.27
2022-12-15T09:34:43.133Z,16.00
2022-12-15T09:37:11.920Z,18.33
2022-12-15T09:39:42.305Z,16.37
2022-12-15T09:42:25.390Z,15.53
2022-12-15T09:45:01.422Z,15.80
2022-12-15T09:47:39.064Z,16.90
2022-12-15T09:50:12.977Z,15.87
2022-12-15T09:52:49.638Z,15.83
2022-12-15T09:55:23.482Z,16.67
2022-12-15T09:57:56.045Z,17.20
2022-12-15T10:00:26.290Z,16.93
2022-12-15T10:03:22.826Z,17.33
2022-12-15T10:06:21.134Z,17.13
2022-12-15T10:09:02.484Z,15.63
2022-12-15T10:11:57.707Z,17.80
2022-12-15T10:14:33.295Z,18.47
2022-12-15T10:17:08.564Z,16.87
2022-12-15T10:19:45.560Z,16.33
2022-12-15T10:22:27.301Z,18.60
2022-12-15T10:25:09.675Z,18.10
2022-12-15T10:27:58.243Z,16.80
2022-12-15T10:30:27.352Z,18.27
2022-12-15T10:33:03.521Z,19.00
2022-12-15T10:35:34.385Z,19.03
2022-12-15T10:38:05.409Z,19.17
2022-12-15T10:41:09.372Z,18.10
2022-12-15T10:43:47.161Z,18.40
2022-12-15T10:46:18.999Z,17.50
2022-12-15T10:48:50.252Z,16.90
2022-12-15T10:51:24.944Z,16.83
2022-12-15T10:53:56.465Z,15.80
2022-12-15T10:57:53.751Z,18.60
2022-12-15T11:00:31.822Z,18.13
2022-12-15T11:03:01.398Z,16.90
2022-12-15T11:05:30.515Z,19.43
2022-12-15T11:08:16.933Z,17.77
2022-12-15T11:12:05.671Z,18.00
2022-12-15T11:14:46.162Z,16.33
2022-12-15T11:17:21.225Z,15.40
2022-12-15T11:20:01.987Z,17.00
2022-12-15T11:22:40.599Z,15.47
2022-12-15T11:25:26.144Z,18.17
2022-12-15T11:27:59.483Z,17.63
2022-12-15T11:30:35.646Z,18.07
2022-12-15T11:33:06.071Z,19.83
2022-12-15T11:35:44.934Z,21.10
2022-12-15T11:38:25.618Z,18.77
2022-12-15T11:40:59.036Z,20.10
2022-12-15T11:43:38.346Z,18.53
2022-12-15T11:46:22.967Z,18.20
2022-12-15T11:49:17.963Z,18.07
2022-12-15T11:51:52.423Z,19.70
2022-12-15T11:54:43.818Z,19.10
2022-12-15T11:57:36.203Z,21.23
2022-12-15T12:00:10.224Z,19.37
2022-12-15T12:03:08.209Z,19.60
2022-12-15T12:06:07.680Z,19.63
2022-12-15T12:09:02.437Z,19.53
2022-12-15T12:11:39.634Z,20.73
2022-12-15T12:14:27.001Z,20.90
2022-12-15T12:17:04.309Z,19.37
2022-12-15T12:19:38.563Z,18.57
2022-12-15T12:22:14.023Z,20.70
2022-12-15T12:24:50.804Z,20.97
2022-12-15T12:27:28.930Z,19.87
2022-12-15T12:30:03.929Z,20.60
2022-12-15T12:32:41.675Z,19.67
2022-12-15T12:35:30.597Z,19.27
2022-12-15T12:38:04.794Z,17.47
2022-12-15T12:40:57.235Z,20.93
2022-12-15T12:46:28.184Z,18.70
2022-12-15T12:49:02.178Z,19.10
2022-12-15T12:51:33.008Z,20.93
2022-12-15T12:54:02.829Z,19.00
2022-12-15T12:56:37.376Z,18.07
2022-12-15T12:59:28.000Z,20.50
2022-12-15T13:01:58.055Z,19.63
2022-12-15T13:04:42.042Z,18.93
2022-12-15T13:07:31.733Z,16.83
2022-12-15T13:10:15.519Z,18.53
2022-12-15T13:15:45.863Z,19.30
2022-12-15T13:18:23.062Z,19.97
2022-12-15T13:20:57.363Z,19.90
2022-12-15T13:23:43.347Z,19.70
2022-12-15T13:26:16.702Z,19.33
2022-12-15T13:28:51.838Z,18.33
2022-12-15T13:31:35.766Z,17.57
2022-12-15T13:34:27.968Z,18.17
2022-12-15T13:37:04.374Z,17.40
2022-12-15T13:39:49.680Z,17.63
2022-12-15T13:42:41.503Z,16.87
2022-12-15T13:45:50.890Z,19.20
2022-12-15T13:48:35.557Z,17.70
2022-12-15T13:51:17.141Z,19.93
2022-12-15T13:53:51.644Z,17.60
2022-12-15T13:56:40.519Z,19.27
2022-12-15T13:59:18.193Z,15.67
2022-12-15T14:01:51.766Z,17.70
2022-12-15T14:04:23.368Z,17.90
2022-12-15T14:06:55.182Z,17.63
2022-12-15T14:09:30.602Z,18.23
2022-12-15T14:12:00.556Z,17.57
2022-12-15T14:14:33.667Z,18.13
2022-12-15T14:17:03.922Z,18.63
2022-12-15T14:19:41.855Z,18.40
2022-12-15T14:25:19.564Z,20.33
2022-12-15T14:27:50.729Z,18.07
2022-12-15T14:30:24.844Z,24.00
2022-12-15T14:32:58.028Z,21.50
2022-12-15T14:35:37.475Z,21.07
2022-12-15T14:38:10.435Z,19.77
2022-12-15T14:40:40.823Z,19.30
2022-12-15T14:43:15.406Z,20.37
2022-12-15T14:45:44.443Z,19.77
2022-12-15T14:48:41.078Z,22.47
2022-12-15T14:51:15.034Z,21.00
2022-12-15T14:53:48.870Z,19.10
2022-12-15T14:56:30.714Z,22.20
2022-12-15T14:59:04.432Z,20.30
2022-12-15T15:01:40.433Z,18.37
2022-12-15T15:03:05.230Z,20.20
2022-12-15T15:03:12.900Z,19.40
2022-12-15T15:04:26.360Z,20.10
2022-12-15T15:06:58.504Z,25.20
2022-12-15T15:09:29.332Z,27.30
2022-12-15T15:12:02.146Z,29.00
2022-12-15T15:14:34.307Z,27.50
2022-12-15T15:17:07.448Z,26.30
2022-12-15T15:19:49.841Z,26.63
2022-12-15T15:22:40.565Z,25.80
2022-12-15T15:25:41.646Z,26.43
2022-12-15T15:28:26.511Z,30.80
2022-12-15T15:31:28.623Z,26.03
2022-12-15T15:34:00.945Z,26.60
2022-12-15T15:36:40.845Z,28.53
2022-12-15T15:39:17.358Z,29.10
2022-12-15T15:41:49.214Z,25.00
2022-12-15T15:44:18.541Z,33.80
2022-12-15T15:46:55.070Z,32.57
2022-12-15T15:49:26.727Z,33.80
2022-12-15T15:52:02.234Z,34.30
2022-12-15T15:54:37.416Z,33.73
2022-12-15T15:57:11.224Z,36.20
2022-12-15T15:59:45.479Z,33.77
2022-12-15T16:02:30.171Z,34.57
2022-12-15T16:04:59.490Z,29.20
2022-12-15T16:07:30.806Z,31.37
2022-12-15T16:10:13.024Z,29.50
2022-12-15T16:12:49.885Z,27.77
2022-12-15T16:15:32.079Z,34.50
2022-12-15T16:18:01.592Z,34.57
2022-12-15T16:20:31.391Z,34.70
2022-12-15T16:23:07.475Z,35.80
2022-12-15T16:25:50.808Z,33.27
2022-12-15T16:28:28.403Z,36.27
2022-12-15T16:31:02.422Z,32.60
2022-12-15T16:33:31.342Z,33.27
2022-12-15T16:36:00.621Z,32.93
2022-12-15T16:38:33.413Z,33.73
2022-12-15T16:41:08.858Z,31.53
2022-12-15T16:43:41.595Z,37.97
2022-12-15T16:46:16.249Z,35.83
2022-12-15T16:48:45.758Z,39.93
2022-12-15T16:51:27.950Z,40.13
2022-12-15T16:53:57.463Z,39.90
2022-12-15T16:56:27.980Z,39.03
2022-12-15T16:59:30.975Z,38.47
2022-12-15T17:01:48.480Z,38.77
2022-12-15T17:04:20.259Z,42.43
2022-12-15T17:06:50.052Z,44.20
2022-12-15T17:09:23.686Z,41.63
2022-12-15T17:11:55.336Z,43.50
2022-12-15T17:14:25.061Z,48.20
2022-12-15T17:16:54.140Z,49.07
2022-12-15T17:19:23.113Z,36.90
2022-12-15T17:21:56.026Z,50.40
2022-12-15T17:24:28.699Z,50.97
2022-12-15T17:27:04.610Z,48.30
2022-12-15T17:29:36.395Z,42.47
2022-12-15T17:32:09.323Z,43.17
2022-12-15T17:34:41.848Z,42.10
2022-12-15T17:37:15.280Z,43.17
2022-12-15T17:39:51.650Z,48.07
2022-12-15T17:42:23.021Z,49.57
2022-12-15T17:44:52.272Z,50.67
2022-12-15T17:47:26.596Z,54.50
2022-12-15T17:49:56.843Z,53.27
2022-12-15T17:52:34.762Z,43.20
2022-12-15T17:55:23.524Z,45.07
2022-12-15T17:57:56.388Z,51.07
2022-12-15T18:00:28.098Z,43.27
2022-12-15T18:02:58.916Z,45.20
2022-12-15T18:05:31.502Z,43.30
2022-12-15T18:08:04.737Z,45.67
2022-12-15T18:10:38.001Z,40.93
2022-12-15T18:13:20.225Z,42.50
2022-12-15T18:15:51.163Z,44.00
2022-12-15T18:18:23.618Z,47.53
2022-12-15T18:21:01.206Z,50.73
2022-12-15T18:23:35.197Z,46.30
2022-12-15T18:26:05.457Z,45.17
2022-12-15T18:28:37.960Z,46.27
2022-12-15T18:31:19.323Z,44.77
2022-12-15T18:33:50.566Z,48.73
2022-12-15T18:36:22.503Z,53.47
2022-12-15T18:38:53.328Z,49.53
2022-12-15T18:41:27.433Z,49.47
2022-12-15T18:43:59.782Z,55.80
2022-12-15T18:46:30.083Z,52.50
2022-12-15T18:49:01.750Z,52.53
2022-12-15T18:51:31.735Z,50.87
2022-12-15T18:54:03.060Z,54.10
2022-12-15T18:56:34.703Z,51.80
2022-12-15T18:59:13.429Z,49.43
2022-12-15T19:01:43.819Z,55.87
2022-12-15T19:04:15.325Z,55.80
2022-12-15T19:06:48.011Z,54.80
2022-12-15T19:09:25.465Z,54.13
2022-12-15T19:12:19.200Z,56.07
2022-12-15T19:14:55.259Z,53.63
2022-12-15T19:17:43.725Z,55.27
2022-12-15T19:20:41.871Z,52.73
2022-12-15T19:23:16.499Z,57.50
2022-12-15T19:25:52.515Z,61.00
2022-12-15T19:28:27.398Z,62.23
2022-12-15T19:31:01.697Z,52.10
2022-12-15T19:33:33.605Z,56.67
2022-12-15T19:36:05.288Z,62.70
2022-12-15T19:38:36.537Z,66.60
2022-12-15T19:41:07.712Z,63.73
2022-12-15T19:43:39.396Z,68.13
2022-12-15T19:46:15.599Z,62.23
2022-12-15T19:48:46.249Z,68.33
2022-12-15T19:51:24.045Z,62.40
2022-12-15T19:53:57.754Z,60.67
2022-12-15T19:56:37.744Z,71.10
2022-12-15T19:59:12.989Z,66.60
2022-12-15T20:01:49.445Z,65.07
2022-12-15T20:04:22.440Z,63.67
2022-12-15T20:06:56.384Z,64.03
2022-12-15T20:09:27.006Z,72.10
2022-12-15T20:11:56.510Z,74.10
2022-12-15T20:14:27.530Z,80.27
2022-12-15T20:17:00.185Z,75.90
2022-12-15T20:19:29.663Z,77.93
2022-12-15T20:22:03.808Z,80.80
2022-12-15T20:24:34.434Z,85.87
2022-12-15T20:27:10.294Z,82.20
2022-12-15T20:29:44.125Z,70.33
2022-12-15T20:32:19.140Z,73.07
2022-12-15T20:34:49.965Z,76.17
2022-12-15T20:37:22.546Z,86.20
2022-12-15T20:39:57.151Z,74.67
2022-12-15T20:42:27.288Z,77.67
2022-12-15T20:44:57.105Z,80.47
2022-12-15T20:47:30.058Z,79.03
2022-12-15T20:50:00.902Z,85.37
2022-12-15T20:52:30.533Z,78.60
2022-12-15T20:55:00.140Z,81.40
2022-12-15T20:57:29.235Z,82.50
2022-12-15T20:59:58.469Z,79.30
2022-12-15T21:02:30.881Z,99.63
2022-12-15T21:05:01.785Z,80.03
2022-12-15T21:07:31.174Z,78.83
2022-12-15T21:10:00.597Z,84.30
2022-12-15T21:12:30.210Z,88.17
2022-12-15T21:14:59.637Z,89.00
2022-12-15T21:17:30.928Z,85.97
2022-12-15T21:20:00.105Z,96.90
2022-12-15T21:22:30.218Z,82.30
2022-12-15T21:25:00.773Z,96.00
2022-12-15T21:27:29.783Z,76.00
2022-12-15T21:29:58.982Z,75.37
2022-12-15T21:32:37.846Z,72.07
2022-12-15T21:35:11.848Z,63.03
2022-12-15T21:37:43.082Z,67.17
2022-12-15T21:40:23.151Z,64.20
2022-12-15T21:42:57.398Z,58.17
2022-12-15T21:45:31.611Z,59.60
2022-12-15T21:48:23.409Z,58.90
2022-12-15T21:50:59.796Z,64.70
2022-12-15T21:53:33.018Z,64.97
2022-12-15T21:56:05.633Z,55.20
2022-12-15T21:58:38.093Z,55.40
2022-12-15T22:01:14.733Z,56.57
2022-12-15T22:04:10.099Z,52.53
2022-12-15T22:06:48.670Z,54.07
2022-12-15T22:09:47.271Z,57.37
2022-12-15T22:12:23.087Z,61.37
2022-12-15T22:14:54.198Z,67.47
2022-12-15T22:17:33.617Z,62.90
2022-12-15T22:20:19.845Z,78.23
2022-12-15T22:22:51.312Z,61.70
2022-12-15T22:25:22.497Z,62.30
2022-12-15T22:27:51.723Z,64.07
2022-12-15T22:30:22.071Z,59.50
2022-12-15T22:32:51.398Z,61.33
2022-12-15T22:35:27.538Z,64.20
2022-12-15T22:37:56.609Z,66.33
2022-12-15T22:40:30.701Z,62.67
2022-12-15T22:43:02.640Z,65.60
2022-12-15T22:45:31.484Z,73.50
2022-12-15T22:48:01.833Z,72.80
2022-12-15T22:50:34.335Z,58.87
2022-12-15T22:53:03.255Z,65.80
2022-12-15T22:55:35.756Z,71.40
2022-12-15T22:58:10.939Z,65.47
2022-12-15T23:00:40.592Z,68.23
2022-12-15T23:03:14.369Z,58.97
2022-12-15T23:05:47.815Z,60.40
2022-12-15T23:08:18.256Z,64.33
2022-12-15T23:11:04.871Z,57.37
2022-12-15T23:13:33.980Z,66.20
2022-12-15T23:16:21.785Z,68.60
2022-12-15T23:18:52.672Z,61.73
2022-12-15T23:21:26.034Z,58.87
2022-12-15T23:23:54.812Z,58.10
2022-12-15T23:26:26.104Z,60.23
2022-12-15T23:28:55.797Z,58.60
2022-12-15T23:31:24.687Z,62.73
2022-12-15T23:33:54.319Z,58.90
2022-12-15T23:36:25.389Z,60.00
2022-12-15T23:38:56.380Z,62.20
2022-12-15T23:41:25.244Z,62.90
2022-12-15T23:43:54.061Z,56.90
2022-12-15T23:46:22.871Z,57.47
2022-12-15T23:48:51.966Z,58.63
2022-12-15T23:51:21.795Z,57.07
2022-12-15T23:53:52.301Z,58.17
2022-12-15T23:56:25.540Z,58.23
2022-12-15T23:58:57.920Z,57.93
